Time;durP1;ratioP1;P1;durP2;ratioP2;P2;SDS_P1;SDS_P2;PMS_P1;PMS_P2;Temp;Humidity;BMP_temperature;BMP_pressure;BME280_temperature;BME280_humidity;BME280_pressure;Samples;Min_cycle;Max_cycle;Signal;HPM_P1;HPM_P2
2023/10/15 00:00:13;;;;;;;6.40;1.63;;;7.90;99.90;;;;;;4958578;28;20046;-85
2023/10/15 00:02:43;;;;;;;5.50;1.30;;;7.80;99.90;;;;;;4975730;28;20105;-86
2023/10/15 00:05:12;;;;;;;5.77;1.13;;;7.80;99.90;;;;;;4959176;28;20121;-86
2023/10/15 00:07:41;;;;;;;6.03;1.50;;;7.80;99.90;;;;;;4964921;28;20054;-86
2023/10/15 00:10:12;;;;;;;5.23;1.53;;;7.80;99.90;;;;;;4954216;28;20113;-86
2023/10/15 00:12:43;;;;;;;3.60;1.20;;;7.80;99.90;;;;;;4958050;28;20049;-87
2023/10/15 00:15:19;;;;;;;6.60;1.25;;;7.80;99.90;;;;;;4956791;28;20145;-87
2023/10/15 00:17:50;;;;;;;3.93;1.17;;;7.80;99.90;;;;;;4974915;28;20039;-86
2023/10/15 00:20:17;;;;;;;4.47;1.02;;;7.80;99.90;;;;;;4976122;28;20179;-87
2023/10/15 00:22:48;;;;;;;5.30;1.10;;;7.70;99.90;;;;;;4956030;28;20039;-88
2023/10/15 00:25:14;;;;;;;2.50;0.93;;;7.70;99.90;;;;;;4973602;28;20043;-89
2023/10/15 00:27:52;;;;;;;7.10;1.20;;;7.70;99.90;;;;;;4946118;28;20160;-87
2023/10/15 00:30:19;;;;;;;4.03;1.30;;;7.70;99.90;;;;;;4968204;28;20142;-87
2023/10/15 00:32:46;;;;;;;5.57;1.03;;;7.70;99.90;;;;;;4974695;28;20038;-88
2023/10/15 00:35:13;;;;;;;6.00;1.40;;;7.70;99.90;;;;;;4959254;28;20470;-87
2023/10/15 00:37:54;;;;;;;5.60;1.33;;;7.60;99.90;;;;;;4974649;28;20500;-89
2023/10/15 00:40:25;;;;;;;5.27;1.20;;;7.60;99.90;;;;;;4958037;28;20042;-88
2023/10/15 00:42:51;;;;;;;3.97;1.30;;;7.60;99.90;;;;;;4957056;28;20406;-87
2023/10/15 00:45:19;;;;;;;3.77;1.27;;;7.50;99.90;;;;;;4959117;28;20401;-88
2023/10/15 00:50:38;;;;;;;3.30;1.30;;;7.50;99.90;;;;;;4959810;28;20697;-88
2023/10/15 00:53:21;;;;;;;5.47;1.20;;;7.40;99.90;;;;;;4972102;28;20500;-87
2023/10/15 00:56:08;;;;;;;5.73;1.20;;;7.50;99.90;;;;;;4964074;28;20051;-90
2023/10/15 00:58:39;;;;;;;4.20;1.10;;;7.50;99.90;;;;;;4958418;28;20038;-88
2023/10/15 01:03:56;;;;;;;5.83;1.10;;;7.50;99.90;;;;;;4972031;28;20047;-88
2023/10/15 01:06:30;;;;;;;3.93;0.97;;;7.40;99.90;;;;;;4957533;28;20098;-88
2023/10/15 01:09:09;;;;;;;3.47;1.30;;;7.50;99.90;;;;;;4958106;28;20070;-87
2023/10/15 01:11:56;;;;;;;2.53;0.90;;;7.50;99.90;;;;;;4958346;28;20043;-87
2023/10/15 01:14:32;;;;;;;5.70;1.43;;;7.50;99.90;;;;;;4958294;28;20042;-88
2023/10/15 01:17:01;;;;;;;3.67;1.20;;;7.50;99.90;;;;;;4974276;28;20083;-87
2023/10/15 01:19:33;;;;;;;5.53;1.40;;;7.50;99.90;;;;;;4958232;28;20530;-88
2023/10/15 01:22:02;;;;;;;6.03;1.52;;;7.50;99.90;;;;;;4958210;28;20141;-89
2023/10/15 01:24:38;;;;;;;5.07;1.00;;;7.50;99.90;;;;;;4955456;28;20101;-88
2023/10/15 01:27:09;;;;;;;2.97;1.03;;;7.50;99.90;;;;;;4973776;28;20046;-89
2023/10/15 01:29:44;;;;;;;5.32;1.38;;;7.50;99.90;;;;;;4974390;28;20174;-88
2023/10/15 01:32:13;;;;;;;3.17;0.97;;;7.50;99.90;;;;;;4955560;28;20128;-88
2023/10/15 01:34:45;;;;;;;3.57;1.00;;;7.50;99.90;;;;;;4956520;28;20522;-89
2023/10/15 01:39:49;;;;;;;4.17;1.20;;;7.40;99.90;;;;;;4958897;28;20637;-89
2023/10/15 01:44:55;;;;;;;4.33;1.10;;;7.40;99.90;;;;;;4964000;28;20137;-87
2023/10/15 01:47:28;;;;;;;4.37;1.10;;;7.40;99.90;;;;;;4957673;28;20057;-89
2023/10/15 01:49:56;;;;;;;2.73;0.90;;;7.40;99.90;;;;;;4957561;28;20085;-88
2023/10/15 01:52:30;;;;;;;3.73;1.03;;;7.40;99.90;;;;;;4972480;28;20066;-88
2023/10/15 01:55:02;;;;;;;4.10;1.20;;;7.40;99.90;;;;;;4973665;28;20054;-87
2023/10/15 01:57:29;;;;;;;4.33;1.00;;;7.40;99.90;;;;;;4957354;28;20042;-88
2023/10/15 02:00:03;;;;;;;3.23;0.80;;;7.40;99.90;;;;;;4954250;29;20067;-89
2023/10/15 02:02:29;;;;;;;4.23;1.20;;;7.30;99.90;;;;;;4967060;28;20035;-89
2023/10/15 02:04:57;;;;;;;5.37;1.00;;;7.30;99.90;;;;;;4973185;28;20167;-88
2023/10/15 02:07:23;;;;;;;5.20;0.90;;;7.30;99.90;;;;;;4951726;28;20093;-88
2023/10/15 02:09:50;;;;;;;2.57;0.80;;;7.30;99.90;;;;;;4957215;28;20042;-87
2023/10/15 02:12:18;;;;;;;4.73;1.30;;;7.30;99.90;;;;;;4952970;28;20043;-87
2023/10/15 02:14:47;;;;;;;3.10;0.97;;;7.30;99.90;;;;;;4970143;28;20122;-86
2023/10/15 02:17:14;;;;;;;3.27;0.80;;;7.30;99.90;;;;;;4956909;28;20031;-88
2023/10/15 02:19:40;;;;;;;2.30;0.90;;;7.30;99.90;;;;;;4972786;28;20043;-87
2023/10/15 02:22:07;;;;;;;3.07;1.10;;;7.30;99.90;;;;;;4958018;28;20038;-86
2023/10/15 02:24:34;;;;;;;4.53;0.97;;;7.20;99.90;;;;;;4959364;28;20446;-88
2023/10/15 02:27:05;;;;;;;5.23;1.10;;;7.20;99.90;;;;;;4957478;28;20488;-88
2023/10/15 02:35:12;;;;;;;4.10;0.90;;;7.20;99.90;;;;;;4939225;29;20094;-88
2023/10/15 02:37:40;;;;;;;5.10;1.00;;;7.10;99.90;;;;;;4912302;29;20519;-87
2023/10/15 02:40:16;;;;;;;2.97;1.17;;;7.00;99.90;;;;;;4942893;28;20050;-87
2023/10/15 02:42:52;;;;;;;3.30;1.20;;;7.00;99.90;;;;;;4956810;28;20100;-87
2023/10/15 02:45:21;;;;;;;4.40;1.40;;;7.00;99.90;;;;;;4978774;28;20043;-88
2023/10/15 02:47:54;;;;;;;6.23;1.10;;;7.00;99.90;;;;;;4954273;28;20043;-88
2023/10/15 02:50:26;;;;;;;3.13;1.20;;;7.10;99.90;;;;;;4956388;28;20505;-88
2023/10/15 02:52:54;;;;;;;4.20;1.15;;;7.00;99.90;;;;;;4940980;28;20054;-87
2023/10/15 02:55:26;;;;;;;2.67;0.90;;;7.00;99.90;;;;;;4972273;28;20487;-88
2023/10/15 02:57:52;;;;;;;;;;;7.00;99.90;;;;;;4957022;28;20375;-87
2023/10/15 03:02:45;;;;;;;5.83;1.13;;;7.00;99.90;;;;;;4972550;28;20042;-86
2023/10/15 03:05:15;;;;;;;6.40;1.10;;;7.00;99.90;;;;;;4924749;29;20050;-87
2023/10/15 03:07:44;;;;;;;3.57;1.30;;;7.10;99.90;;;;;;4948591;28;20499;-87
2023/10/15 03:10:24;;;;;;;2.83;0.97;;;7.10;99.90;;;;;;4950817;28;20043;-89
2023/10/15 03:12:52;;;;;;;4.43;0.97;;;7.10;99.90;;;;;;4948656;28;20049;-85
2023/10/15 03:15:18;;;;;;;5.53;1.10;;;7.10;99.90;;;;;;4940506;28;20051;-87
2023/10/15 03:17:44;;;;;;;4.33;0.77;;;7.10;99.90;;;;;;4973004;28;20047;-87
2023/10/15 03:22:46;;;;;;;2.20;0.90;;;7.10;99.90;;;;;;4945877;28;20051;-89
2023/10/15 03:25:15;;;;;;;2.67;1.00;;;7.10;99.90;;;;;;4956260;28;20500;-89
2023/10/15 03:27:44;;;;;;;3.00;0.83;;;7.00;99.90;;;;;;4955810;28;20057;-88
2023/10/15 03:30:10;;;;;;;4.13;1.00;;;7.10;99.90;;;;;;4954178;28;20065;-91
2023/10/15 03:32:44;;;;;;;4.30;0.80;;;7.00;99.90;;;;;;4951647;29;20384;-88
2023/10/15 03:35:46;;;;;;;3.50;0.93;;;7.00;99.90;;;;;;4953162;28;20376;-88
2023/10/15 03:38:07;;;;;;;3.95;1.02;;;6.90;99.90;;;;;;4965900;28;20061;-88
2023/10/15 03:40:42;;;;;;;4.33;1.10;;;6.80;99.90;;;;;;4956121;28;20045;-89
2023/10/15 03:43:15;;;;;;;3.07;0.90;;;6.80;99.90;;;;;;4955932;28;20093;-88
2023/10/15 03:45:50;;;;;;;4.20;1.10;;;6.80;99.90;;;;;;4972051;28;20058;-87
2023/10/15 03:48:29;;;;;;;6.63;1.10;;;6.70;99.90;;;;;;4955621;28;20844;-89
2023/10/15 03:50:56;;;;;;;5.67;1.10;;;6.70;99.90;;;;;;4967599;28;20070;-89
2023/10/15 03:53:30;;;;;;;2.90;1.03;;;6.70;99.90;;;;;;4945860;28;20052;-90
2023/10/15 03:56:01;;;;;;;4.47;1.30;;;6.70;99.90;;;;;;4955212;28;20133;-89
2023/10/15 03:58:28;;;;;;;3.60;1.10;;;6.80;99.90;;;;;;4955889;28;20034;-88
2023/10/15 04:01:16;;;;;;;3.57;1.10;;;6.80;99.90;;;;;;4952544;29;20126;-89
2023/10/15 04:03:47;;;;;;;3.67;1.20;;;6.80;99.90;;;;;;4968754;28;21382;-89
2023/10/15 04:06:14;;;;;;;2.23;0.93;;;6.70;99.90;;;;;;4971907;28;20514;-88
2023/10/15 04:08:59;;;;;;;4.00;0.90;;;6.80;99.90;;;;;;4956291;28;20090;-87
2023/10/15 04:11:29;;;;;;;5.40;1.60;;;6.80;99.90;;;;;;4955882;28;20160;-89
2023/10/15 04:14:11;;;;;;;2.57;1.00;;;6.70;99.90;;;;;;4949557;28;20046;-87
2023/10/15 04:16:37;;;;;;;3.15;0.93;;;6.70;99.90;;;;;;4948880;28;20039;-88
2023/10/15 04:19:03;;;;;;;5.27;1.17;;;6.70;99.90;;;;;;4955438;28;20035;-90
2023/10/15 04:21:29;;;;;;;2.73;1.07;;;6.70;99.90;;;;;;4955714;28;20045;-87
2023/10/15 04:23:56;;;;;;;4.47;1.00;;;6.70;99.90;;;;;;4952174;29;20122;-88
2023/10/15 04:26:23;;;;;;;3.13;1.00;;;6.70;99.90;;;;;;4965040;28;20039;-88
2023/10/15 04:28:53;;;;;;;5.93;1.30;;;6.80;99.90;;;;;;4952308;28;20035;-88
2023/10/15 04:31:22;;;;;;;4.67;1.20;;;6.80;99.90;;;;;;4945226;28;20491;-89
2023/10/15 04:33:55;;;;;;;4.97;1.23;;;6.80;99.90;;;;;;4939909;28;20043;-88
2023/10/15 04:36:22;;;;;;;6.03;1.30;;;6.80;99.90;;;;;;4957182;28;20512;-88
2023/10/15 04:38:57;;;;;;;4.27;1.10;;;6.80;99.90;;;;;;4959013;28;20501;-88
2023/10/15 04:41:23;;;;;;;5.73;1.20;;;6.70;99.90;;;;;;4960211;28;20097;-87
2023/10/15 04:43:49;;;;;;;4.93;1.10;;;6.70;99.90;;;;;;4947324;29;20055;-88
2023/10/15 04:46:25;;;;;;;2.60;1.20;;;6.70;99.90;;;;;;4967910;28;20081;-87
2023/10/15 04:48:51;;;;;;;3.67;1.03;;;6.70;99.90;;;;;;4970651;28;20057;-88
2023/10/15 04:51:18;;;;;;;7.70;1.10;;;6.70;99.90;;;;;;4955287;28;20130;-88
2023/10/15 04:53:50;;;;;;;2.30;1.00;;;6.80;99.90;;;;;;4955549;29;20043;-87
2023/10/15 04:56:16;;;;;;;7.95;1.30;;;6.80;99.90;;;;;;4946074;28;20046;-88
2023/10/15 04:58:43;;;;;;;2.90;0.80;;;6.80;99.90;;;;;;4958370;28;20047;-87
2023/10/15 05:01:09;;;;;;;3.20;0.90;;;6.80;99.90;;;;;;4974795;28;20037;-87
2023/10/15 05:03:38;;;;;;;4.37;0.90;;;6.70;99.90;;;;;;4957969;28;20042;-88
2023/10/15 05:06:10;;;;;;;2.60;1.23;;;6.70;99.90;;;;;;4957775;28;20125;-88
2023/10/15 05:08:37;;;;;;;2.30;0.90;;;6.70;99.90;;;;;;4958347;28;20073;-87
2023/10/15 05:11:04;;;;;;;5.93;1.57;;;6.60;99.90;;;;;;4973962;28;20050;-87
2023/10/15 05:13:31;;;;;;;5.67;1.03;;;6.70;99.90;;;;;;4972552;28;20039;-87
2023/10/15 05:15:57;;;;;;;2.43;0.87;;;6.70;99.90;;;;;;4942300;28;20050;-88
2023/10/15 05:18:23;;;;;;;4.23;1.03;;;6.70;99.90;;;;;;4975470;28;20022;-87
2023/10/15 05:20:50;;;;;;;4.23;1.00;;;6.70;99.90;;;;;;4954979;28;20514;-88
2023/10/15 05:23:17;;;;;;;1.70;0.80;;;6.70;99.90;;;;;;4964342;28;20046;-87
2023/10/15 05:25:43;;;;;;;2.57;0.87;;;6.70;99.90;;;;;;4958043;28;20107;-82
2023/10/15 05:28:14;;;;;;;3.47;0.93;;;6.70;99.90;;;;;;4967023;28;20064;-82
2023/10/15 05:30:40;;;;;;;2.63;0.80;;;6.70;99.90;;;;;;4964228;28;20417;-82
2023/10/15 05:33:07;;;;;;;3.43;0.90;;;6.70;99.90;;;;;;4970653;28;20038;-82
2023/10/15 05:35:34;;;;;;;2.33;0.90;;;6.70;99.90;;;;;;4973995;28;20056;-83
2023/10/15 05:38:00;;;;;;;1.83;0.87;;;6.70;99.90;;;;;;4957534;28;20121;-81
2023/10/15 05:40:27;;;;;;;4.33;0.90;;;6.70;99.90;;;;;;4960262;28;20042;-83
2023/10/15 05:42:53;;;;;;;1.43;0.70;;;6.70;99.90;;;;;;4973931;28;20443;-83
2023/10/15 05:45:19;;;;;;;5.40;0.80;;;6.70;99.90;;;;;;4973800;28;20424;-82
2023/10/15 05:47:45;;;;;;;5.27;1.17;;;6.60;99.90;;;;;;4973585;28;20507;-82
2023/10/15 05:50:16;;;;;;;3.63;0.77;;;6.60;99.90;;;;;;4972291;28;20049;-83
2023/10/15 05:52:42;;;;;;;4.97;0.80;;;6.60;99.90;;;;;;4973280;28;20058;-83
2023/10/15 05:55:11;;;;;;;5.03;0.87;;;6.60;99.90;;;;;;4941313;28;20365;-82
2023/10/15 05:57:37;;;;;;;5.10;0.80;;;6.60;99.90;;;;;;4942094;28;20121;-82
2023/10/15 06:00:19;;;;;;;2.23;0.87;;;6.60;99.90;;;;;;4973787;28;20375;-82
2023/10/15 06:02:50;;;;;;;2.42;0.80;;;6.60;99.90;;;;;;4957784;28;20121;-82
2023/10/15 06:05:18;;;;;;;3.50;0.90;;;6.60;99.90;;;;;;4957205;28;20130;-82
2023/10/15 06:07:44;;;;;;;4.50;0.70;;;6.60;99.90;;;;;;4957142;28;20081;-83
2023/10/15 06:10:14;;;;;;;2.83;0.87;;;6.60;99.90;;;;;;4973672;28;20046;-82
2023/10/15 06:12:40;;;;;;;2.70;1.00;;;6.60;99.90;;;;;;4942712;28;20125;-82
2023/10/15 06:15:07;;;;;;;3.50;0.80;;;6.60;99.90;;;;;;4972685;28;20443;-83
2023/10/15 06:17:34;;;;;;;2.93;0.97;;;6.60;99.90;;;;;;4944575;28;20035;-81
2023/10/15 06:20:12;;;;;;;3.73;0.80;;;6.60;99.90;;;;;;4974111;28;20491;-83
2023/10/15 06:22:39;;;;;;;4.77;1.10;;;6.60;99.90;;;;;;4972521;28;20043;-83
2023/10/15 06:25:08;;;;;;;1.70;0.70;;;6.60;99.90;;;;;;4970387;28;20090;-83
2023/10/15 06:27:37;;;;;;;3.67;0.80;;;6.60;99.90;;;;;;4927614;29;20134;-83
2023/10/15 06:30:14;;;;;;;1.20;0.80;;;6.60;99.90;;;;;;4954722;28;20047;-82
2023/10/15 06:32:44;;;;;;;3.23;0.80;;;6.60;99.90;;;;;;4956867;28;20050;-81
2023/10/15 06:35:14;;;;;;;3.27;0.70;;;6.70;99.90;;;;;;4972347;28;20042;-82
2023/10/15 06:37:41;;;;;;;3.33;0.90;;;6.70;99.90;;;;;;4956776;28;20039;-82
2023/10/15 06:40:08;;;;;;;5.30;1.10;;;6.80;99.90;;;;;;4956457;28;20042;-82
2023/10/15 06:42:35;;;;;;;4.13;0.97;;;6.80;99.90;;;;;;4973778;28;20039;-83
2023/10/15 06:45:02;;;;;;;4.60;0.80;;;6.80;99.90;;;;;;4956162;28;20046;-85
2023/10/15 06:47:29;;;;;;;3.17;0.70;;;6.80;99.90;;;;;;4962865;28;20080;-83
2023/10/15 06:49:55;;;;;;;5.87;0.80;;;6.80;99.90;;;;;;4960550;28;20054;-83
2023/10/15 06:52:21;;;;;;;3.00;0.90;;;6.80;99.90;;;;;;4947236;28;20066;-83
2023/10/15 06:54:48;;;;;;;4.00;1.00;;;6.90;99.90;;;;;;4944225;28;20050;-83
2023/10/15 06:57:16;;;;;;;5.43;1.07;;;6.90;99.90;;;;;;4949608;28;20079;-83
2023/10/15 06:59:43;;;;;;;2.97;0.80;;;6.90;99.90;;;;;;4955021;28;20039;-84
2023/10/15 07:02:09;;;;;;;3.73;0.80;;;6.90;99.90;;;;;;4958771;28;20041;-83
2023/10/15 07:04:35;;;;;;;5.03;1.10;;;6.90;99.90;;;;;;4956213;28;20038;-82
2023/10/15 07:07:01;;;;;;;3.73;0.70;;;6.90;99.90;;;;;;4953230;28;20039;-84
2023/10/15 07:09:27;;;;;;;3.63;1.00;;;6.80;99.90;;;;;;4956135;28;20042;-82
2023/10/15 07:11:53;;;;;;;2.60;0.70;;;6.70;99.90;;;;;;4967129;28;20052;-82
2023/10/15 07:14:19;;;;;;;2.07;0.70;;;6.70;99.90;;;;;;4956337;28;20049;-82
2023/10/15 07:16:45;;;;;;;4.73;1.60;;;6.60;99.90;;;;;;4955830;28;20677;-82
2023/10/15 07:19:11;;;;;;;2.63;1.13;;;6.60;99.90;;;;;;4972161;28;20122;-82
2023/10/15 07:21:37;;;;;;;4.57;0.90;;;6.60;99.90;;;;;;4964950;28;20486;-84
2023/10/15 07:24:05;;;;;;;3.23;0.77;;;6.70;99.90;;;;;;4958884;28;20090;-83
2023/10/15 07:26:31;;;;;;;1.83;0.70;;;6.70;99.90;;;;;;4953897;28;20043;-84
2023/10/15 07:28:56;;;;;;;4.10;0.73;;;6.70;99.90;;;;;;4960183;28;20118;-83
2023/10/15 07:31:22;;;;;;;3.77;0.80;;;6.80;99.90;;;;;;4949306;28;20062;-83
2023/10/15 07:33:48;;;;;;;2.43;0.70;;;6.80;99.90;;;;;;4962163;28;20041;-83
2023/10/15 07:36:14;;;;;;;1.50;0.70;;;6.90;99.90;;;;;;4951861;28;20554;-83
2023/10/15 07:38:41;;;;;;;2.90;1.00;;;6.90;99.90;;;;;;4965202;28;20439;-83
2023/10/15 07:41:06;;;;;;;1.57;0.60;;;6.90;99.90;;;;;;4966864;28;20051;-83
2023/10/15 07:43:32;;;;;;;2.43;1.00;;;7.00;99.90;;;;;;4970955;28;20053;-81
2023/10/15 07:45:59;;;;;;;3.20;0.70;;;7.00;99.90;;;;;;4970989;28;20043;-82
2023/10/15 07:48:25;;;;;;;1.77;0.77;;;7.00;99.90;;;;;;4970525;28;20039;-83
2023/10/15 07:50:51;;;;;;;2.03;0.70;;;7.00;99.90;;;;;;4984257;28;20102;-82
2023/10/15 07:53:16;;;;;;;2.83;0.80;;;6.90;99.90;;;;;;4972665;28;20507;-82
2023/10/15 07:55:42;;;;;;;3.57;0.80;;;6.80;99.90;;;;;;4971743;28;20047;-82
2023/10/15 07:58:09;;;;;;;2.20;0.87;;;6.80;99.90;;;;;;4955297;28;20097;-82
2023/10/15 08:00:35;;;;;;;3.47;0.60;;;6.70;99.90;;;;;;4952907;29;20403;-82
2023/10/15 08:03:01;;;;;;;1.63;0.50;;;6.80;99.90;;;;;;4971775;28;20031;-83
2023/10/15 08:05:31;;;;;;;3.90;0.80;;;6.70;99.90;;;;;;4972291;28;20046;-83
2023/10/15 08:07:57;;;;;;;3.13;0.67;;;6.80;99.90;;;;;;4950909;28;20039;-83
2023/10/15 08:10:24;;;;;;;2.50;0.60;;;6.80;99.90;;;;;;4973601;28;20046;-84
2023/10/15 08:12:51;;;;;;;1.73;0.50;;;6.80;99.90;;;;;;4959118;28;20035;-83
2023/10/15 08:15:18;;;;;;;2.87;0.50;;;6.80;99.90;;;;;;4958335;28;20042;-82
2023/10/15 08:17:44;;;;;;;2.43;0.60;;;6.80;99.90;;;;;;4973772;28;20050;-84
2023/10/15 08:20:10;;;;;;;3.33;0.70;;;6.80;99.90;;;;;;4967231;28;20034;-85
2023/10/15 08:22:37;;;;;;;2.23;0.80;;;6.90;99.90;;;;;;4956320;28;20510;-83
2023/10/15 08:25:02;;;;;;;4.50;0.60;;;6.90;99.90;;;;;;4972892;28;20046;-83
2023/10/15 08:27:28;;;;;;;1.93;0.67;;;7.00;99.90;;;;;;4974077;28;20043;-83
2023/10/15 08:29:54;;;;;;;1.20;0.67;;;7.10;99.90;;;;;;4955033;28;20039;-83
2023/10/15 08:32:20;;;;;;;5.10;1.33;;;7.20;99.90;;;;;;4952261;28;20043;-83
2023/10/15 08:34:47;;;;;;;1.30;0.70;;;7.40;99.90;;;;;;4968576;28;20046;-84
2023/10/15 08:37:14;;;;;;;2.43;0.77;;;7.50;99.90;;;;;;4969864;28;20391;-83
2023/10/15 08:39:40;;;;;;;1.40;0.60;;;7.70;99.90;;;;;;4938380;28;20505;-84
2023/10/15 08:42:13;;;;;;;4.23;0.70;;;7.90;99.90;;;;;;4954557;28;20089;-84
2023/10/15 08:44:43;;;;;;;4.63;0.80;;;8.00;99.90;;;;;;4972160;28;20550;-83
2023/10/15 08:47:13;;;;;;;1.33;0.77;;;8.00;99.90;;;;;;4973374;28;20134;-84
2023/10/15 08:49:52;;;;;;;3.30;0.67;;;8.00;99.90;;;;;;4971300;28;20418;-83
2023/10/15 08:52:21;;;;;;;3.20;0.60;;;8.20;99.90;;;;;;4971869;28;20065;-82
2023/10/15 08:54:48;;;;;;;1.30;0.70;;;8.30;99.90;;;;;;4973130;28;20076;-83
2023/10/15 08:57:14;;;;;;;2.33;0.77;;;8.40;99.90;;;;;;4957866;28;20034;-83
2023/10/15 08:59:43;;;;;;;3.40;0.87;;;8.40;99.90;;;;;;4973364;28;20035;-83
2023/10/15 09:02:09;;;;;;;4.50;0.90;;;8.40;99.90;;;;;;4968500;28;20534;-83
2023/10/15 09:04:36;;;;;;;3.87;0.90;;;8.40;99.90;;;;;;4954705;28;20042;-84
2023/10/15 09:07:03;;;;;;;2.47;0.83;;;8.40;99.90;;;;;;4957231;28;20042;-84
2023/10/15 09:09:32;;;;;;;6.37;1.30;;;8.40;99.90;;;;;;4972862;28;20397;-84
2023/10/15 09:11:59;;;;;;;4.67;0.87;;;8.50;99.90;;;;;;4957596;28;20093;-83
2023/10/15 09:14:38;;;;;;;5.40;0.80;;;8.60;99.90;;;;;;4986689;28;20552;-83
2023/10/15 09:17:04;;;;;;;3.57;1.00;;;8.70;99.90;;;;;;4956234;28;20106;-83
2023/10/15 09:19:31;;;;;;;4.47;1.10;;;8.80;99.90;;;;;;4970316;28;20043;-83
2023/10/15 09:21:57;;;;;;;4.77;0.90;;;8.90;99.90;;;;;;4951726;28;20105;-84
2023/10/15 09:24:23;;;;;;;3.07;0.90;;;9.00;99.90;;;;;;4957120;28;20101;-83
2023/10/15 09:26:50;;;;;;;6.97;1.17;;;9.10;99.90;;;;;;4957026;28;20050;-83
2023/10/15 09:29:20;;;;;;;4.57;1.00;;;9.10;99.90;;;;;;4972299;28;20054;-83
2023/10/15 09:31:47;;;;;;;3.60;1.00;;;9.10;99.90;;;;;;4966789;28;20061;-86
2023/10/15 09:34:13;;;;;;;2.70;0.60;;;9.00;99.90;;;;;;4969289;28;20050;-84
2023/10/15 09:36:38;;;;;;;6.13;1.20;;;9.00;99.90;;;;;;4956518;28;20051;-85
2023/10/15 09:39:12;;;;;;;3.93;0.90;;;8.90;99.90;;;;;;4956216;28;20050;-85
2023/10/15 09:41:44;;;;;;;5.10;1.07;;;8.90;99.90;;;;;;4956070;28;20492;-84
2023/10/15 09:44:16;;;;;;;;;;;8.90;99.90;;;;;;4968888;28;20053;-85
2023/10/15 09:46:43;;;;;;;3.70;0.90;;;8.80;99.90;;;;;;4972769;28;20078;-83
2023/10/15 09:49:11;;;;;;;7.00;1.40;;;8.80;99.90;;;;;;4973049;28;20051;-84
2023/10/15 09:51:40;;;;;;;4.20;1.13;;;8.90;99.90;;;;;;4968074;28;20552;-84
2023/10/15 09:54:11;;;;;;;2.73;0.83;;;8.90;99.90;;;;;;4968685;28;20055;-85
2023/10/15 09:56:41;;;;;;;4.30;0.90;;;8.90;99.90;;;;;;4970953;28;20552;-85
2023/10/15 09:59:10;;;;;;;3.30;1.43;;;9.00;99.90;;;;;;4956892;28;20093;-85
2023/10/15 10:01:44;;;;;;;7.50;1.00;;;9.20;99.90;;;;;;4968030;28;20398;-85
2023/10/15 10:04:42;;;;;;;3.57;0.90;;;9.40;99.90;;;;;;4947183;28;20521;-83
2023/10/15 10:07:28;;;;;;;4.20;1.00;;;9.60;99.90;;;;;;4950879;28;20042;-84
2023/10/15 10:10:23;;;;;;;4.63;0.97;;;9.70;99.90;;;;;;4972323;28;20483;-84
2023/10/15 10:13:04;;;;;;;7.50;1.40;;;9.70;99.90;;;;;;4963233;28;20054;-84
2023/10/15 10:15:52;;;;;;;7.33;1.73;;;9.80;99.90;;;;;;4956866;28;20049;-86
2023/10/15 10:18:19;;;;;;;5.47;0.97;;;9.90;99.90;;;;;;4957026;28;20039;-86
2023/10/15 10:20:48;;;;;;;4.47;1.20;;;9.90;99.90;;;;;;4965776;28;20038;-85
2023/10/15 10:23:14;;;;;;;6.63;1.10;;;10.00;99.90;;;;;;4952804;28;20044;-85
2023/10/15 10:25:48;;;;;;;5.47;1.13;;;10.10;99.90;;;;;;4956808;28;20039;-85
2023/10/15 10:28:25;;;;;;;4.60;1.20;;;10.20;99.90;;;;;;4965652;28;20047;-86
2023/10/15 10:30:59;;;;;;;5.97;1.20;;;10.30;99.90;;;;;;4956560;28;20046;-85
2023/10/15 10:33:46;;;;;;;7.53;1.40;;;10.40;99.90;;;;;;4972000;28;20586;-85
2023/10/15 10:36:12;;;;;;;5.07;1.27;;;10.50;99.90;;;;;;4956636;28;20091;-83
2023/10/15 10:38:39;;;;;;;5.77;1.03;;;10.50;99.90;;;;;;4956721;28;20060;-84
2023/10/15 10:41:12;;;;;;;5.70;1.20;;;10.60;99.90;;;;;;4967274;28;20031;-84
2023/10/15 10:43:42;;;;;;;3.97;1.10;;;10.70;99.90;;;;;;4956489;28;20046;-84
2023/10/15 10:46:22;;;;;;;4.90;0.90;;;10.70;99.90;;;;;;4956302;28;20062;-82
2023/10/15 10:49:18;;;;;;;6.87;1.30;;;10.70;99.90;;;;;;4948248;28;20053;-85
2023/10/15 10:52:06;;;;;;;7.37;1.00;;;10.50;99.90;;;;;;4955964;28;20062;-87
2023/10/15 10:54:32;;;;;;;5.60;1.03;;;10.30;99.90;;;;;;4967985;28;20101;-84
2023/10/15 10:57:01;;;;;;;2.47;0.73;;;10.20;99.90;;;;;;4972653;28;20039;-85
2023/10/15 10:59:29;;;;;;;2.60;1.07;;;10.20;99.90;;;;;;4967816;28;20392;-84
2023/10/15 11:01:55;;;;;;;6.43;1.00;;;10.30;99.90;;;;;;4971701;28;20057;-85
2023/10/15 11:04:20;;;;;;;3.90;0.73;;;10.40;99.90;;;;;;4955880;28;20054;-83
2023/10/15 11:06:46;;;;;;;5.00;1.13;;;10.40;99.90;;;;;;4954150;28;20039;-83
2023/10/15 11:09:15;;;;;;;4.00;1.10;;;10.50;99.90;;;;;;4971543;28;20150;-83
2023/10/15 11:11:44;;;;;;;6.03;1.23;;;10.60;99.90;;;;;;4955570;28;20074;-84
2023/10/15 11:14:12;;;;;;;5.43;1.00;;;10.70;99.90;;;;;;4955411;28;20050;-86
2023/10/15 11:16:45;;;;;;;3.70;1.27;;;10.80;99.90;;;;;;4972945;28;20065;-84
2023/10/15 11:19:22;;;;;;;4.77;1.10;;;10.80;99.90;;;;;;4971557;28;20047;-84
2023/10/15 11:21:50;;;;;;;7.47;1.60;;;10.90;99.90;;;;;;4955164;28;20051;-85
2023/10/15 11:24:16;;;;;;;4.73;1.13;;;11.10;99.90;;;;;;4955022;28;20652;-83
2023/10/15 11:26:44;;;;;;;2.70;0.80;;;11.20;99.90;;;;;;4971606;28;20376;-82
2023/10/15 11:29:14;;;;;;;2.63;0.90;;;11.20;99.90;;;;;;4973187;28;20043;-83
2023/10/15 11:31:45;;;;;;;3.30;0.87;;;11.40;99.90;;;;;;4952093;28;20074;-83
2023/10/15 11:34:21;;;;;;;4.90;0.90;;;11.40;99.90;;;;;;4954898;28;20047;-84
2023/10/15 11:36:50;;;;;;;5.03;1.03;;;11.40;99.90;;;;;;4970189;28;20031;-83
2023/10/15 11:42:03;;;;;;;3.83;1.10;;;11.20;99.90;;;;;;4971666;28;20054;-84
2023/10/15 11:44:31;;;;;;;4.03;1.17;;;11.00;99.90;;;;;;4972133;28;20054;-84
2023/10/15 11:46:57;;;;;;;2.63;0.70;;;10.90;99.90;;;;;;4975189;28;20082;-83
2023/10/15 11:49:26;;;;;;;4.03;0.80;;;10.80;99.90;;;;;;4959594;28;20515;-82
2023/10/15 11:51:56;;;;;;;2.73;0.90;;;10.80;99.90;;;;;;4955128;29;20105;-83
2023/10/15 11:54:30;;;;;;;3.17;0.80;;;10.70;99.90;;;;;;4959687;28;20043;-83
2023/10/15 11:56:59;;;;;;;2.27;0.90;;;10.70;99.90;;;;;;4959364;28;20039;-85
2023/10/15 11:59:26;;;;;;;2.60;0.97;;;10.80;99.90;;;;;;4959763;28;20043;-85
2023/10/15 12:01:53;;;;;;;4.63;1.00;;;10.90;99.90;;;;;;4959672;28;20410;-83
2023/10/15 12:04:20;;;;;;;2.40;0.87;;;11.10;99.90;;;;;;4975079;28;20120;-84
2023/10/15 12:06:47;;;;;;;5.90;1.13;;;11.20;99.90;;;;;;4975949;28;20046;-84
2023/10/15 12:09:16;;;;;;;5.00;0.80;;;11.30;99.90;;;;;;4959193;28;20121;-84
2023/10/15 12:11:44;;;;;;;6.80;1.00;;;11.40;99.90;;;;;;4975154;28;20121;-83
2023/10/15 12:14:11;;;;;;;5.22;0.98;;;11.50;99.90;;;;;;4975566;28;20042;-83
2023/10/15 12:16:40;;;;;;;4.97;1.20;;;11.60;99.90;;;;;;4958066;28;20046;-85
2023/10/15 12:19:08;;;;;;;1.75;0.90;;;11.70;99.90;;;;;;4972858;28;20050;-84
2023/10/15 12:21:38;;;;;;;5.10;1.20;;;11.80;99.90;;;;;;4958982;28;20039;-83
2023/10/15 12:24:05;;;;;;;2.63;1.00;;;11.60;99.90;;;;;;4958706;28;20126;-82
2023/10/15 12:26:31;;;;;;;5.87;1.40;;;11.40;99.90;;;;;;4957431;28;20047;-82
2023/10/15 12:28:56;;;;;;;5.60;1.13;;;10.70;99.90;;;;;;4957390;28;20039;-84
2023/10/15 12:31:23;;;;;;;3.07;0.90;;;10.00;99.90;;;;;;4958664;28;20043;-83
2023/10/15 12:33:48;;;;;;;4.47;1.00;;;9.50;99.90;;;;;;4958844;28;20043;-82
2023/10/15 12:36:14;;;;;;;6.33;0.97;;;9.20;99.90;;;;;;4957349;28;20092;-81
2023/10/15 12:38:42;;;;;;;6.70;1.43;;;9.20;99.90;;;;;;4958599;28;20050;-81
2023/10/15 12:41:09;;;;;;;4.33;1.10;;;9.20;99.90;;;;;;4972884;28;20391;-81
2023/10/15 12:43:36;;;;;;;4.63;1.30;;;9.40;99.90;;;;;;4942228;28;20089;-82
2023/10/15 12:46:03;;;;;;;4.40;1.27;;;9.50;99.90;;;;;;4954291;28;20106;-81
2023/10/15 12:48:30;;;;;;;4.67;1.60;;;9.80;99.90;;;;;;4951101;28;20046;-81
2023/10/15 12:50:56;;;;;;;3.83;1.10;;;9.80;99.90;;;;;;4959212;28;20035;-83
2023/10/15 12:53:25;;;;;;;4.33;1.10;;;9.80;99.90;;;;;;4974252;28;20055;-81
2023/10/15 12:55:52;;;;;;;2.43;0.93;;;10.00;99.90;;;;;;4956970;28;20090;-82
2023/10/15 12:58:18;;;;;;;5.27;1.27;;;10.10;99.90;;;;;;4973724;28;20043;-81
2023/10/15 13:00:48;;;;;;;4.87;1.47;;;10.10;99.90;;;;;;4974095;28;20399;-82
2023/10/15 13:03:14;;;;;;;4.90;1.30;;;10.20;99.90;;;;;;4957663;28;20078;-80
2023/10/15 13:05:40;;;;;;;3.07;1.20;;;10.30;99.90;;;;;;4941845;28;20050;-81
2023/10/15 13:08:05;;;;;;;7.37;1.10;;;10.40;99.90;;;;;;4957721;28;20486;-81
2023/10/15 13:10:32;;;;;;;6.20;1.40;;;10.40;99.90;;;;;;4957776;28;20450;-81
2023/10/15 13:12:59;;;;;;;5.40;1.23;;;10.40;99.90;;;;;;4973904;28;20038;-82
2023/10/15 13:15:25;;;;;;;5.60;1.10;;;10.30;99.90;;;;;;4955047;28;20067;-81
2023/10/15 13:17:54;;;;;;;4.33;1.07;;;10.10;99.90;;;;;;4973637;28;20078;-81
2023/10/15 13:20:23;;;;;;;4.70;1.20;;;10.00;99.90;;;;;;4957485;28;20047;-82
2023/10/15 13:22:49;;;;;;;3.27;1.33;;;9.90;99.90;;;;;;4973754;28;20042;-82
2023/10/15 13:25:15;;;;;;;4.17;1.20;;;10.00;99.90;;;;;;4941932;28;20042;-82
2023/10/15 13:27:42;;;;;;;3.77;0.87;;;10.10;99.90;;;;;;4954148;29;20589;-82
2023/10/15 13:30:18;;;;;;;5.20;1.10;;;10.20;99.90;;;;;;4983073;28;20047;-84